sensor_id;sensor_type;location;lat;lon;timestamp;P1;durP1;ratioP1;P2;durP2;ratioP2
67132;SDS011;54052;53.542;49.408;2023-04-03T00:00:33;6.05;;;1.88;;
67132;SDS011;54052;53.542;49.408;2023-04-03T00:02:59;7.18;;;2.00;;
67132;SDS011;54052;53.542;49.408;2023-04-03T00:05:25;16.13;;;2.33;;
67132;SDS011;54052;53.542;49.408;2023-04-03T00:07:51;14.35;;;2.03;;
67132;SDS011;54052;53.542;49.408;2023-04-03T00:10:17;11.18;;;1.60;;
67132;SDS011;54052;53.542;49.408;2023-04-03T00:12:43;9.93;;;1.75;;
67132;SDS011;54052;53.542;49.408;2023-04-03T00:15:10;7.03;;;1.52;;
67132;SDS011;54052;53.542;49.408;2023-04-03T00:17:36;15.55;;;1.70;;
67132;SDS011;54052;53.542;49.408;2023-04-03T00:20:02;7.00;;;1.83;;
67132;SDS011;54052;53.542;49.408;2023-04-03T00:22:29;5.82;;;1.52;;
67132;SDS011;54052;53.542;49.408;2023-04-03T00:24:55;7.25;;;1.10;;
67132;SDS011;54052;53.542;49.408;2023-04-03T00:27:21;8.07;;;1.50;;
67132;SDS011;54052;53.542;49.408;2023-04-03T00:29:47;4.05;;;1.40;;
67132;SDS011;54052;53.542;49.408;2023-04-03T00:32:13;8.63;;;1.35;;
67132;SDS011;54052;53.542;49.408;2023-04-03T00:34:40;16.45;;;1.70;;
67132;SDS011;54052;53.542;49.408;2023-04-03T00:37:06;9.23;;;1.60;;
67132;SDS011;54052;53.542;49.408;2023-04-03T00:39:32;7.38;;;1.42;;
67132;SDS011;54052;53.542;49.408;2023-04-03T00:41:58;10.52;;;2.15;;
67132;SDS011;54052;53.542;49.408;2023-04-03T00:46:59;9.98;;;1.52;;
67132;SDS011;54052;53.542;49.408;2023-04-03T00:49:26;8.98;;;2.50;;
67132;SDS011;54052;53.542;49.408;2023-04-03T00:51:53;6.75;;;1.40;;
67132;SDS011;54052;53.542;49.408;2023-04-03T00:54:20;12.35;;;1.50;;
67132;SDS011;54052;53.542;49.408;2023-04-03T00:56:46;5.32;;;1.40;;
67132;SDS011;54052;53.542;49.408;2023-04-03T00:59:13;6.78;;;1.25;;
67132;SDS011;54052;53.542;49.408;2023-04-03T01:01:47;8.13;;;1.63;;
67132;SDS011;54052;53.542;49.408;2023-04-03T01:06:55;9.43;;;1.40;;
67132;SDS011;54052;53.542;49.408;2023-04-03T01:09:23;4.72;;;1.13;;
67132;SDS011;54052;53.542;49.408;2023-04-03T01:11:49;5.75;;;1.40;;
67132;SDS011;54052;53.542;49.408;2023-04-03T01:14:15;11.57;;;1.77;;
67132;SDS011;54052;53.542;49.408;2023-04-03T01:16:41;12.20;;;2.03;;
67132;SDS011;54052;53.542;49.408;2023-04-03T01:19:08;26.67;;;2.47;;
67132;SDS011;54052;53.542;49.408;2023-04-03T01:21:51;8.77;;;1.40;;
67132;SDS011;54052;53.542;49.408;2023-04-03T01:24:33;17.90;;;2.60;;
67132;SDS011;54052;53.542;49.408;2023-04-03T01:27:03;10.18;;;1.85;;
67132;SDS011;54052;53.542;49.408;2023-04-03T01:29:30;11.82;;;1.23;;
67132;SDS011;54052;53.542;49.408;2023-04-03T01:31:57;22.63;;;3.13;;
67132;SDS011;54052;53.542;49.408;2023-04-03T01:34:25;46.67;;;3.95;;
67132;SDS011;54052;53.542;49.408;2023-04-03T01:36:52;25.10;;;2.67;;
67132;SDS011;54052;53.542;49.408;2023-04-03T01:39:19;20.90;;;2.47;;
67132;SDS011;54052;53.542;49.408;2023-04-03T01:41:46;24.35;;;2.75;;
67132;SDS011;54052;53.542;49.408;2023-04-03T01:44:12;58.72;;;3.53;;
67132;SDS011;54052;53.542;49.408;2023-04-03T01:46:39;28.38;;;2.95;;
67132;SDS011;54052;53.542;49.408;2023-04-03T01:49:06;35.20;;;3.38;;
67132;SDS011;54052;53.542;49.408;2023-04-03T01:51:33;24.83;;;2.80;;
67132;SDS011;54052;53.542;49.408;2023-04-03T01:53:59;30.50;;;2.30;;
67132;SDS011;54052;53.542;49.408;2023-04-03T01:56:25;20.02;;;2.20;;
67132;SDS011;54052;53.542;49.408;2023-04-03T01:58:51;14.68;;;2.10;;
67132;SDS011;54052;53.542;49.408;2023-04-03T02:01:17;21.65;;;2.22;;
67132;SDS011;54052;53.542;49.408;2023-04-03T02:03:43;33.17;;;1.90;;
67132;SDS011;54052;53.542;49.408;2023-04-03T02:06:09;16.73;;;2.40;;
67132;SDS011;54052;53.542;49.408;2023-04-03T02:08:35;13.88;;;2.38;;
67132;SDS011;54052;53.542;49.408;2023-04-03T02:11:01;14.32;;;2.25;;
67132;SDS011;54052;53.542;49.408;2023-04-03T02:13:27;37.38;;;2.85;;
67132;SDS011;54052;53.542;49.408;2023-04-03T02:15:53;24.88;;;2.13;;
67132;SDS011;54052;53.542;49.408;2023-04-03T02:18:19;14.10;;;3.28;;
67132;SDS011;54052;53.542;49.408;2023-04-03T02:20:46;10.80;;;2.00;;
67132;SDS011;54052;53.542;49.408;2023-04-03T02:23:12;21.52;;;2.47;;
67132;SDS011;54052;53.542;49.408;2023-04-03T02:25:38;16.45;;;2.10;;
67132;SDS011;54052;53.542;49.408;2023-04-03T02:28:04;20.63;;;1.80;;
67132;SDS011;54052;53.542;49.408;2023-04-03T02:30:30;12.88;;;2.40;;
67132;SDS011;54052;53.542;49.408;2023-04-03T02:32:56;15.70;;;2.35;;
67132;SDS011;54052;53.542;49.408;2023-04-03T02:35:22;19.88;;;2.45;;
67132;SDS011;54052;53.542;49.408;2023-04-03T02:37:48;10.20;;;2.17;;
67132;SDS011;54052;53.542;49.408;2023-04-03T02:40:14;26.13;;;2.78;;
67132;SDS011;54052;53.542;49.408;2023-04-03T02:42:40;29.33;;;2.85;;
67132;SDS011;54052;53.542;49.408;2023-04-03T02:45:06;37.05;;;2.63;;
67132;SDS011;54052;53.542;49.408;2023-04-03T02:47:32;25.67;;;2.40;;
67132;SDS011;54052;53.542;49.408;2023-04-03T02:49:58;12.00;;;1.95;;
67132;SDS011;54052;53.542;49.408;2023-04-03T02:52:25;18.95;;;1.95;;
67132;SDS011;54052;53.542;49.408;2023-04-03T02:54:51;15.65;;;2.60;;
67132;SDS011;54052;53.542;49.408;2023-04-03T02:57:18;13.75;;;2.22;;
67132;SDS011;54052;53.542;49.408;2023-04-03T02:59:45;18.88;;;1.98;;
67132;SDS011;54052;53.542;49.408;2023-04-03T03:02:11;32.35;;;3.08;;
67132;SDS011;54052;53.542;49.408;2023-04-03T03:04:37;26.00;;;3.13;;
67132;SDS011;54052;53.542;49.408;2023-04-03T03:07:04;15.52;;;2.67;;
67132;SDS011;54052;53.542;49.408;2023-04-03T03:09:30;17.52;;;3.33;;
67132;SDS011;54052;53.542;49.408;2023-04-03T03:11:57;8.30;;;2.13;;
67132;SDS011;54052;53.542;49.408;2023-04-03T03:14:23;21.77;;;2.33;;
67132;SDS011;54052;53.542;49.408;2023-04-03T03:16:49;24.10;;;2.28;;
67132;SDS011;54052;53.542;49.408;2023-04-03T03:19:16;32.15;;;3.40;;
67132;SDS011;54052;53.542;49.408;2023-04-03T03:21:42;29.45;;;2.88;;
67132;SDS011;54052;53.542;49.408;2023-04-03T03:24:08;27.10;;;2.78;;
67132;SDS011;54052;53.542;49.408;2023-04-03T03:26:35;17.02;;;2.45;;
67132;SDS011;54052;53.542;49.408;2023-04-03T03:29:01;28.65;;;3.22;;
67132;SDS011;54052;53.542;49.408;2023-04-03T03:31:28;40.40;;;3.25;;
67132;SDS011;54052;53.542;49.408;2023-04-03T03:33:54;25.60;;;3.30;;
67132;SDS011;54052;53.542;49.408;2023-04-03T03:36:20;43.53;;;4.35;;
67132;SDS011;54052;53.542;49.408;2023-04-03T03:38:46;35.15;;;2.85;;
67132;SDS011;54052;53.542;49.408;2023-04-03T03:41:13;37.03;;;5.00;;
67132;SDS011;54052;53.542;49.408;2023-04-03T03:43:39;22.60;;;3.00;;
67132;SDS011;54052;53.542;49.408;2023-04-03T03:46:05;23.63;;;2.70;;
67132;SDS011;54052;53.542;49.408;2023-04-03T03:48:31;50.22;;;4.90;;
67132;SDS011;54052;53.542;49.408;2023-04-03T03:50:58;25.17;;;2.05;;
67132;SDS011;54052;53.542;49.408;2023-04-03T03:53:24;35.05;;;4.72;;
67132;SDS011;54052;53.542;49.408;2023-04-03T03:55:50;27.02;;;2.38;;
67132;SDS011;54052;53.542;49.408;2023-04-03T03:58:16;39.30;;;1.00;;
67132;SDS011;54052;53.542;49.408;2023-04-03T04:00:42;22.83;;;0.98;;
67132;SDS011;54052;53.542;49.408;2023-04-03T04:03:09;11.98;;;1.35;;
67132;SDS011;54052;53.542;49.408;2023-04-03T04:05:35;24.58;;;1.75;;
67132;SDS011;54052;53.542;49.408;2023-04-03T04:08:01;16.58;;;1.40;;
67132;SDS011;54052;53.542;49.408;2023-04-03T04:10:27;22.20;;;2.20;;
67132;SDS011;54052;53.542;49.408;2023-04-03T04:12:53;15.02;;;1.60;;
67132;SDS011;54052;53.542;49.408;2023-04-03T04:15:19;12.90;;;1.20;;
67132;SDS011;54052;53.542;49.408;2023-04-03T04:17:47;11.68;;;1.27;;
67132;SDS011;54052;53.542;49.408;2023-04-03T04:20:14;10.57;;;0.93;;
67132;SDS011;54052;53.542;49.408;2023-04-03T04:22:40;4.47;;;1.20;;
67132;SDS011;54052;53.542;49.408;2023-04-03T04:25:06;22.08;;;2.10;;
67132;SDS011;54052;53.542;49.408;2023-04-03T04:27:33;14.10;;;1.15;;
67132;SDS011;54052;53.542;49.408;2023-04-03T04:29:59;16.83;;;1.52;;
67132;SDS011;54052;53.542;49.408;2023-04-03T04:32:26;12.10;;;1.00;;
67132;SDS011;54052;53.542;49.408;2023-04-03T04:34:52;13.50;;;0.80;;
67132;SDS011;54052;53.542;49.408;2023-04-03T04:37:18;17.48;;;1.60;;
67132;SDS011;54052;53.542;49.408;2023-04-03T04:39:44;8.95;;;1.20;;
67132;SDS011;54052;53.542;49.408;2023-04-03T04:42:11;3.80;;;0.60;;
67132;SDS011;54052;53.542;49.408;2023-04-03T04:44:38;18.35;;;1.70;;
67132;SDS011;54052;53.542;49.408;2023-04-03T04:47:05;14.85;;;0.80;;
67132;SDS011;54052;53.542;49.408;2023-04-03T04:49:31;15.43;;;1.17;;
67132;SDS011;54052;53.542;49.408;2023-04-03T04:51:57;12.27;;;1.10;;
67132;SDS011;54052;53.542;49.408;2023-04-03T04:54:23;8.85;;;1.10;;
67132;SDS011;54052;53.542;49.408;2023-04-03T04:56:49;24.80;;;1.15;;
67132;SDS011;54052;53.542;49.408;2023-04-03T04:59:15;42.13;;;3.97;;
67132;SDS011;54052;53.542;49.408;2023-04-03T05:01:41;19.92;;;1.42;;
67132;SDS011;54052;53.542;49.408;2023-04-03T05:04:07;20.65;;;1.35;;
67132;SDS011;54052;53.542;49.408;2023-04-03T05:06:34;9.43;;;0.82;;
67132;SDS011;54052;53.542;49.408;2023-04-03T05:09:01;19.77;;;0.98;;
67132;SDS011;54052;53.542;49.408;2023-04-03T05:11:27;13.20;;;1.67;;
67132;SDS011;54052;53.542;49.408;2023-04-03T05:13:53;15.15;;;0.90;;
67132;SDS011;54052;53.542;49.408;2023-04-03T05:16:19;4.82;;;0.70;;
67132;SDS011;54052;53.542;49.408;2023-04-03T05:18:45;21.70;;;1.33;;
67132;SDS011;54052;53.542;49.408;2023-04-03T05:21:11;24.23;;;1.80;;
67132;SDS011;54052;53.542;49.408;2023-04-03T05:23:37;14.77;;;1.83;;
67132;SDS011;54052;53.542;49.408;2023-04-03T05:26:04;17.92;;;1.25;;
67132;SDS011;54052;53.542;49.408;2023-04-03T05:28:30;12.80;;;1.00;;
67132;SDS011;54052;53.542;49.408;2023-04-03T05:30:57;18.20;;;0.98;;
67132;SDS011;54052;53.542;49.408;2023-04-03T05:33:24;7.22;;;0.93;;
67132;SDS011;54052;53.542;49.408;2023-04-03T05:35:52;7.35;;;1.13;;
67132;SDS011;54052;53.542;49.408;2023-04-03T05:38:18;3.20;;;1.17;;
67132;SDS011;54052;53.542;49.408;2023-04-03T05:40:45;6.20;;;0.80;;
67132;SDS011;54052;53.542;49.408;2023-04-03T05:43:11;8.13;;;0.75;;
67132;SDS011;54052;53.542;49.408;2023-04-03T05:45:38;29.50;;;1.73;;
67132;SDS011;54052;53.542;49.408;2023-04-03T05:48:04;16.83;;;1.00;;
67132;SDS011;54052;53.542;49.408;2023-04-03T05:50:30;5.50;;;1.25;;
67132;SDS011;54052;53.542;49.408;2023-04-03T05:52:57;29.95;;;1.42;;
67132;SDS011;54052;53.542;49.408;2023-04-03T05:55:24;37.45;;;1.63;;
67132;SDS011;54052;53.542;49.408;2023-04-03T05:57:53;4.93;;;0.90;;
67132;SDS011;54052;53.542;49.408;2023-04-03T06:00:19;31.30;;;0.85;;
67132;SDS011;54052;53.542;49.408;2023-04-03T06:02:47;16.45;;;1.35;;
67132;SDS011;54052;53.542;49.408;2023-04-03T06:05:13;19.10;;;1.00;;
67132;SDS011;54052;53.542;49.408;2023-04-03T06:07:40;30.08;;;2.35;;
67132;SDS011;54052;53.542;49.408;2023-04-03T06:10:06;11.63;;;1.20;;
67132;SDS011;54052;53.542;49.408;2023-04-03T06:12:34;7.63;;;1.20;;
67132;SDS011;54052;53.542;49.408;2023-04-03T06:15:00;5.32;;;0.85;;
67132;SDS011;54052;53.542;49.408;2023-04-03T06:17:27;3.90;;;0.77;;
67132;SDS011;54052;53.542;49.408;2023-04-03T06:19:55;13.20;;;1.15;;
67132;SDS011;54052;53.542;49.408;2023-04-03T06:22:23;9.18;;;0.82;;
67132;SDS011;54052;53.542;49.408;2023-04-03T06:24:51;34.70;;;1.23;;
67132;SDS011;54052;53.542;49.408;2023-04-03T06:27:17;13.50;;;0.70;;
67132;SDS011;54052;53.542;49.408;2023-04-03T06:29:43;9.52;;;1.10;;
67132;SDS011;54052;53.542;49.408;2023-04-03T06:32:10;15.20;;;1.00;;
67132;SDS011;54052;53.542;49.408;2023-04-03T06:34:37;12.95;;;0.60;;
67132;SDS011;54052;53.542;49.408;2023-04-03T06:37:03;15.60;;;1.08;;
67132;SDS011;54052;53.542;49.408;2023-04-03T06:39:29;13.68;;;1.05;;
67132;SDS011;54052;53.542;49.408;2023-04-03T06:41:56;18.27;;;0.80;;
67132;SDS011;54052;53.542;49.408;2023-04-03T06:44:22;16.85;;;1.40;;
67132;SDS011;54052;53.542;49.408;2023-04-03T06:46:48;19.58;;;1.10;;
67132;SDS011;54052;53.542;49.408;2023-04-03T06:49:15;13.50;;;1.17;;
67132;SDS011;54052;53.542;49.408;2023-04-03T06:51:41;19.25;;;1.33;;
67132;SDS011;54052;53.542;49.408;2023-04-03T06:54:07;18.85;;;1.05;;
67132;SDS011;54052;53.542;49.408;2023-04-03T06:56:33;9.68;;;0.90;;
67132;SDS011;54052;53.542;49.408;2023-04-03T06:59:00;28.75;;;1.40;;
67132;SDS011;54052;53.542;49.408;2023-04-03T07:01:28;34.42;;;2.55;;
67132;SDS011;54052;53.542;49.408;2023-04-03T07:03:55;14.40;;;1.00;;
67132;SDS011;54052;53.542;49.408;2023-04-03T07:06:22;20.77;;;1.08;;
67132;SDS011;54052;53.542;49.408;2023-04-03T07:08:48;19.65;;;1.00;;
67132;SDS011;54052;53.542;49.408;2023-04-03T07:11:15;20.25;;;1.13;;
67132;SDS011;54052;53.542;49.408;2023-04-03T07:13:42;8.27;;;1.00;;
67132;SDS011;54052;53.542;49.408;2023-04-03T07:16:08;16.77;;;1.40;;
67132;SDS011;54052;53.542;49.408;2023-04-03T07:18:35;12.77;;;1.67;;
67132;SDS011;54052;53.542;49.408;2023-04-03T07:21:02;36.63;;;2.63;;
67132;SDS011;54052;53.542;49.408;2023-04-03T07:23:28;21.23;;;2.60;;
67132;SDS011;54052;53.542;49.408;2023-04-03T07:25:54;7.70;;;1.25;;
67132;SDS011;54052;53.542;49.408;2023-04-03T07:28:21;17.25;;;1.30;;
67132;SDS011;54052;53.542;49.408;2023-04-03T07:30:49;12.75;;;1.50;;
67132;SDS011;54052;53.542;49.408;2023-04-03T07:33:17;18.42;;;1.48;;
67132;SDS011;54052;53.542;49.408;2023-04-03T07:35:45;26.50;;;1.10;;
67132;SDS011;54052;53.542;49.408;2023-04-03T07:38:11;18.65;;;1.00;;
67132;SDS011;54052;53.542;49.408;2023-04-03T07:40:38;13.88;;;1.58;;
67132;SDS011;54052;53.542;49.408;2023-04-03T07:43:05;20.30;;;1.88;;
67132;SDS011;54052;53.542;49.408;2023-04-03T07:45:32;8.60;;;0.93;;
67132;SDS011;54052;53.542;49.408;2023-04-03T07:48:00;32.80;;;1.85;;
67132;SDS011;54052;53.542;49.408;2023-04-03T07:50:26;24.67;;;1.00;;
67132;SDS011;54052;53.542;49.408;2023-04-03T07:52:54;16.25;;;2.50;;
67132;SDS011;54052;53.542;49.408;2023-04-03T07:55:23;6.70;;;0.98;;
67132;SDS011;54052;53.542;49.408;2023-04-03T07:57:50;15.52;;;1.23;;
67132;SDS011;54052;53.542;49.408;2023-04-03T08:00:17;16.77;;;1.13;;
67132;SDS011;54052;53.542;49.408;2023-04-03T08:02:43;12.15;;;1.20;;
67132;SDS011;54052;53.542;49.408;2023-04-03T08:05:10;11.50;;;1.55;;
67132;SDS011;54052;53.542;49.408;2023-04-03T08:07:37;12.45;;;1.90;;
67132;SDS011;54052;53.542;49.408;2023-04-03T08:10:03;26.02;;;2.08;;
67132;SDS011;54052;53.542;49.408;2023-04-03T08:12:30;18.80;;;1.70;;
67132;SDS011;54052;53.542;49.408;2023-04-03T08:14:59;16.45;;;2.03;;
67132;SDS011;54052;53.542;49.408;2023-04-03T08:17:26;16.23;;;1.08;;
67132;SDS011;54052;53.542;49.408;2023-04-03T08:19:53;22.98;;;1.27;;
67132;SDS011;54052;53.542;49.408;2023-04-03T08:22:19;16.65;;;1.30;;
67132;SDS011;54052;53.542;49.408;2023-04-03T08:24:45;26.48;;;1.98;;
67132;SDS011;54052;53.542;49.408;2023-04-03T08:27:12;10.02;;;1.23;;
67132;SDS011;54052;53.542;49.408;2023-04-03T08:29:38;23.08;;;1.63;;
67132;SDS011;54052;53.542;49.408;2023-04-03T08:32:05;26.75;;;1.05;;
67132;SDS011;54052;53.542;49.408;2023-04-03T08:34:31;18.63;;;2.05;;
67132;SDS011;54052;53.542;49.408;2023-04-03T08:37:00;24.20;;;1.25;;
67132;SDS011;54052;53.542;49.408;2023-04-03T08:39:27;17.27;;;1.20;;
67132;SDS011;54052;53.542;49.408;2023-04-03T08:41:55;15.30;;;1.50;;
67132;SDS011;54052;53.542;49.408;2023-04-03T08:49:57;33.92;;;1.35;;
67132;SDS011;54052;53.542;49.408;2023-04-03T08:55:02;6.90;;;0.80;;
67132;SDS011;54052;53.542;49.408;2023-04-03T08:57:35;19.80;;;1.27;;
67132;SDS011;54052;53.542;49.408;2023-04-03T09:00:06;13.23;;;1.55;;
67132;SDS011;54052;53.542;49.408;2023-04-03T09:02:52;17.45;;;1.13;;
67132;SDS011;54052;53.542;49.408;2023-04-03T09:14:23;30.27;;;1.45;;
67132;SDS011;54052;53.542;49.408;2023-04-03T09:17:03;25.80;;;1.38;;
67132;SDS011;54052;53.542;49.408;2023-04-03T09:19:46;23.92;;;3.17;;
67132;SDS011;54052;53.542;49.408;2023-04-03T09:22:38;19.13;;;1.48;;
67132;SDS011;54052;53.542;49.408;2023-04-03T09:25:15;36.90;;;1.48;;
67132;SDS011;54052;53.542;49.408;2023-04-03T09:27:45;11.55;;;1.25;;
67132;SDS011;54052;53.542;49.408;2023-04-03T09:30:16;23.05;;;1.63;;
67132;SDS011;54052;53.542;49.408;2023-04-03T09:32:53;31.10;;;1.48;;
67132;SDS011;54052;53.542;49.408;2023-04-03T09:35:26;21.63;;;1.45;;
67132;SDS011;54052;53.542;49.408;2023-04-03T09:37:58;20.45;;;1.40;;
67132;SDS011;54052;53.542;49.408;2023-04-03T09:42:52;28.75;;;1.63;;
67132;SDS011;54052;53.542;49.408;2023-04-03T09:45:29;12.27;;;1.42;;
67132;SDS011;54052;53.542;49.408;2023-04-03T09:55:53;17.83;;;2.00;;
67132;SDS011;54052;53.542;49.408;2023-04-03T09:58:30;34.80;;;3.05;;
67132;SDS011;54052;53.542;49.408;2023-04-03T10:01:04;24.48;;;2.05;;
67132;SDS011;54052;53.542;49.408;2023-04-03T10:03:31;39.28;;;3.00;;
67132;SDS011;54052;53.542;49.408;2023-04-03T10:06:01;19.77;;;1.02;;
67132;SDS011;54052;53.542;49.408;2023-04-03T10:08:46;28.20;;;1.30;;
67132;SDS011;54052;53.542;49.408;2023-04-03T10:11:31;28.05;;;0.93;;
67132;SDS011;54052;53.542;49.408;2023-04-03T10:13:59;27.70;;;1.40;;
67132;SDS011;54052;53.542;49.408;2023-04-03T10:16:32;15.95;;;1.58;;
67132;SDS011;54052;53.542;49.408;2023-04-03T10:21:50;19.35;;;1.52;;
67132;SDS011;54052;53.542;49.408;2023-04-03T10:24:47;19.25;;;1.48;;
67132;SDS011;54052;53.542;49.408;2023-04-03T10:30:09;19.52;;;1.40;;
67132;SDS011;54052;53.542;49.408;2023-04-03T10:38:09;18.48;;;1.00;;
67132;SDS011;54052;53.542;49.408;2023-04-03T10:49:05;56.85;;;4.57;;
67132;SDS011;54052;53.542;49.408;2023-04-03T10:54:24;28.55;;;2.83;;
67132;SDS011;54052;53.542;49.408;2023-04-03T10:56:57;32.97;;;1.25;;
67132;SDS011;54052;53.542;49.408;2023-04-03T10:59:38;30.98;;;1.95;;
67132;SDS011;54052;53.542;49.408;2023-04-03T11:05:03;21.08;;;1.17;;
67132;SDS011;54052;53.542;49.408;2023-04-03T11:07:34;18.73;;;1.65;;
67132;SDS011;54052;53.542;49.408;2023-04-03T11:10:14;23.35;;;2.00;;
67132;SDS011;54052;53.542;49.408;2023-04-03T11:12:52;14.85;;;1.95;;
67132;SDS011;54052;53.542;49.408;2023-04-03T11:15:23;26.27;;;3.83;;
67132;SDS011;54052;53.542;49.408;2023-04-03T11:20:21;17.70;;;0.98;;
67132;SDS011;54052;53.542;49.408;2023-04-03T11:23:03;15.15;;;1.63;;
67132;SDS011;54052;53.542;49.408;2023-04-03T11:25:39;19.85;;;2.28;;
67132;SDS011;54052;53.542;49.408;2023-04-03T11:28:11;36.38;;;2.92;;
67132;SDS011;54052;53.542;49.408;2023-04-03T11:33:46;24.75;;;1.73;;
67132;SDS011;54052;53.542;49.408;2023-04-03T11:36:43;28.40;;;2.05;;
67132;SDS011;54052;53.542;49.408;2023-04-03T11:46:57;30.08;;;2.92;;
67132;SDS011;54052;53.542;49.408;2023-04-03T12:05:55;27.63;;;1.30;;
67132;SDS011;54052;53.542;49.408;2023-04-03T12:08:25;42.80;;;2.42;;
67132;SDS011;54052;53.542;49.408;2023-04-03T12:16:27;25.33;;;1.30;;
67132;SDS011;54052;53.542;49.408;2023-04-03T12:24:38;21.70;;;1.38;;
67132;SDS011;54052;53.542;49.408;2023-04-03T12:32:30;13.20;;;1.35;;
67132;SDS011;54052;53.542;49.408;2023-04-03T12:45:50;19.73;;;1.35;;
67132;SDS011;54052;53.542;49.408;2023-04-03T12:48:18;26.75;;;1.38;;
67132;SDS011;54052;53.542;49.408;2023-04-03T12:50:49;36.85;;;1.52;;
67132;SDS011;54052;53.542;49.408;2023-04-03T12:53:18;33.72;;;1.50;;
67132;SDS011;54052;53.542;49.408;2023-04-03T12:55:52;30.20;;;1.65;;
67132;SDS011;54052;53.542;49.408;2023-04-03T12:58:29;37.70;;;1.90;;
67132;SDS011;54052;53.542;49.408;2023-04-03T13:03:27;26.60;;;1.40;;
67132;SDS011;54052;53.542;49.408;2023-04-03T13:06:01;13.40;;;1.05;;
67132;SDS011;54052;53.542;49.408;2023-04-03T13:08:29;18.70;;;1.52;;
67132;SDS011;54052;53.542;49.408;2023-04-03T13:11:01;31.30;;;2.13;;
67132;SDS011;54052;53.542;49.408;2023-04-03T13:13:28;26.15;;;2.38;;
67132;SDS011;54052;53.542;49.408;2023-04-03T13:15:55;32.95;;;1.60;;
67132;SDS011;54052;53.542;49.408;2023-04-03T13:18:31;39.05;;;1.85;;
67132;SDS011;54052;53.542;49.408;2023-04-03T13:23:32;21.98;;;1.45;;
67132;SDS011;54052;53.542;49.408;2023-04-03T13:26:02;26.60;;;1.48;;
67132;SDS011;54052;53.542;49.408;2023-04-03T13:28:30;32.65;;;2.22;;
67132;SDS011;54052;53.542;49.408;2023-04-03T13:31:03;17.13;;;1.30;;
67132;SDS011;54052;53.542;49.408;2023-04-03T13:33:36;28.08;;;1.60;;
67132;SDS011;54052;53.542;49.408;2023-04-03T13:36:16;33.72;;;1.90;;
67132;SDS011;54052;53.542;49.408;2023-04-03T13:38:46;15.47;;;2.40;;
67132;SDS011;54052;53.542;49.408;2023-04-03T13:41:26;43.15;;;2.13;;
67132;SDS011;54052;53.542;49.408;2023-04-03T13:43:56;37.42;;;2.97;;
67132;SDS011;54052;53.542;49.408;2023-04-03T13:46:39;22.67;;;1.63;;
67132;SDS011;54052;53.542;49.408;2023-04-03T13:49:17;45.40;;;3.05;;
67132;SDS011;54052;53.542;49.408;2023-04-03T13:51:48;27.85;;;2.10;;
67132;SDS011;54052;53.542;49.408;2023-04-03T13:54:20;15.90;;;1.40;;
67132;SDS011;54052;53.542;49.408;2023-04-03T13:56:52;34.20;;;1.40;;
67132;SDS011;54052;53.542;49.408;2023-04-03T13:59:22;21.08;;;2.03;;
67132;SDS011;54052;53.542;49.408;2023-04-03T14:01:54;19.65;;;2.42;;
67132;SDS011;54052;53.542;49.408;2023-04-03T14:07:14;58.08;;;3.42;;
67132;SDS011;54052;53.542;49.408;2023-04-03T14:09:42;21.13;;;2.17;;
67132;SDS011;54052;53.542;49.408;2023-04-03T14:12:12;32.42;;;3.08;;
67132;SDS011;54052;53.542;49.408;2023-04-03T14:14:53;33.10;;;2.60;;
67132;SDS011;54052;53.542;49.408;2023-04-03T14:17:21;30.58;;;5.38;;
67132;SDS011;54052;53.542;49.408;2023-04-03T14:19:49;55.60;;;5.32;;
67132;SDS011;54052;53.542;49.408;2023-04-03T14:22:19;38.13;;;3.38;;
67132;SDS011;54052;53.542;49.408;2023-04-03T14:24:48;28.88;;;2.58;;
67132;SDS011;54052;53.542;49.408;2023-04-03T14:27:19;30.88;;;2.88;;
67132;SDS011;54052;53.542;49.408;2023-04-03T14:29:49;31.15;;;3.05;;
67132;SDS011;54052;53.542;49.408;2023-04-03T14:32:17;19.48;;;3.42;;
67132;SDS011;54052;53.542;49.408;2023-04-03T14:34:45;29.33;;;2.58;;
67132;SDS011;54052;53.542;49.408;2023-04-03T14:37:12;35.10;;;3.22;;
67132;SDS011;54052;53.542;49.408;2023-04-03T14:39:41;37.00;;;2.97;;
67132;SDS011;54052;53.542;49.408;2023-04-03T14:42:12;36.88;;;2.35;;
67132;SDS011;54052;53.542;49.408;2023-04-03T14:44:41;50.97;;;4.43;;
67132;SDS011;54052;53.542;49.408;2023-04-03T14:47:11;43.55;;;4.47;;
67132;SDS011;54052;53.542;49.408;2023-04-03T14:49:39;33.65;;;3.22;;
67132;SDS011;54052;53.542;49.408;2023-04-03T14:52:06;81.63;;;6.53;;
67132;SDS011;54052;53.542;49.408;2023-04-03T14:54:44;46.55;;;4.32;;
67132;SDS011;54052;53.542;49.408;2023-04-03T14:57:10;50.92;;;5.10;;
67132;SDS011;54052;53.542;49.408;2023-04-03T14:59:39;47.10;;;6.28;;
67132;SDS011;54052;53.542;49.408;2023-04-03T15:02:48;40.05;;;5.55;;
67132;SDS011;54052;53.542;49.408;2023-04-03T15:05:00;53.45;;;7.88;;
67132;SDS011;54052;53.542;49.408;2023-04-03T15:07:30;55.03;;;9.43;;
67132;SDS011;54052;53.542;49.408;2023-04-03T15:10:05;60.50;;;10.40;;
67132;SDS011;54052;53.542;49.408;2023-04-03T15:12:43;57.67;;;10.05;;
67132;SDS011;54052;53.542;49.408;2023-04-03T15:15:10;66.88;;;12.15;;
67132;SDS011;54052;53.542;49.408;2023-04-03T15:17:38;66.85;;;13.90;;
67132;SDS011;54052;53.542;49.408;2023-04-03T15:20:15;82.25;;;14.20;;
67132;SDS011;54052;53.542;49.408;2023-04-03T15:22:45;69.07;;;13.82;;
67132;SDS011;54052;53.542;49.408;2023-04-03T15:25:11;75.10;;;14.20;;
67132;SDS011;54052;53.542;49.408;2023-04-03T15:27:38;89.43;;;18.67;;
67132;SDS011;54052;53.542;49.408;2023-04-03T15:30:06;86.10;;;19.63;;
67132;SDS011;54052;53.542;49.408;2023-04-03T15:32:36;108.75;;;17.88;;
67132;SDS011;54052;53.542;49.408;2023-04-03T15:35:02;74.28;;;16.25;;
67132;SDS011;54052;53.542;49.408;2023-04-03T15:37:29;82.22;;;15.25;;
67132;SDS011;54052;53.542;49.408;2023-04-03T15:39:55;84.68;;;16.67;;
67132;SDS011;54052;53.542;49.408;2023-04-03T15:42:21;92.05;;;18.42;;
67132;SDS011;54052;53.542;49.408;2023-04-03T15:44:47;103.82;;;20.95;;
67132;SDS011;54052;53.542;49.408;2023-04-03T15:47:13;94.90;;;17.02;;
67132;SDS011;54052;53.542;49.408;2023-04-03T15:49:40;101.38;;;19.33;;
67132;SDS011;54052;53.542;49.408;2023-04-03T15:52:06;80.47;;;15.07;;
67132;SDS011;54052;53.542;49.408;2023-04-03T15:54:32;83.68;;;13.45;;
67132;SDS011;54052;53.542;49.408;2023-04-03T15:56:59;64.18;;;11.77;;
67132;SDS011;54052;53.542;49.408;2023-04-03T15:59:25;91.13;;;11.55;;
67132;SDS011;54052;53.542;49.408;2023-04-03T16:01:51;71.78;;;9.48;;
67132;SDS011;54052;53.542;49.408;2023-04-03T16:04:18;60.42;;;8.90;;
67132;SDS011;54052;53.542;49.408;2023-04-03T16:06:46;68.38;;;9.23;;
67132;SDS011;54052;53.542;49.408;2023-04-03T16:09:12;72.50;;;9.80;;
67132;SDS011;54052;53.542;49.408;2023-04-03T16:11:38;56.03;;;8.55;;
67132;SDS011;54052;53.542;49.408;2023-04-03T16:14:05;80.95;;;9.52;;
67132;SDS011;54052;53.542;49.408;2023-04-03T16:16:32;90.63;;;9.18;;
67132;SDS011;54052;53.542;49.408;2023-04-03T16:18:59;74.47;;;8.90;;
67132;SDS011;54052;53.542;49.408;2023-04-03T16:21:26;92.00;;;9.27;;
67132;SDS011;54052;53.542;49.408;2023-04-03T16:23:53;45.70;;;8.88;;
67132;SDS011;54052;53.542;49.408;2023-04-03T16:26:19;57.35;;;7.15;;
67132;SDS011;54052;53.542;49.408;2023-04-03T16:28:45;58.28;;;6.60;;
67132;SDS011;54052;53.542;49.408;2023-04-03T16:31:11;75.47;;;8.18;;
67132;SDS011;54052;53.542;49.408;2023-04-03T16:33:38;55.25;;;7.32;;